Time;durP1;ratioP1;P1;durP2;ratioP2;P2;SDS_P1;SDS_P2;PMS_P1;PMS_P2;Temp;Humidity;BMP_temperature;BMP_pressure;BME280_temperature;BME280_humidity;BME280_pressure;Samples;Min_cycle;Max_cycle;Signal;HPM_P1;HPM_P2
2021/08/19 00:01:34;;;;;;;17.30;8.57;;;;;;;;;;5125001;27;20047;-57
2021/08/19 00:04:01;;;;;;;19.57;10.13;;;;;;;;;;5111276;28;20107;-57
2021/08/19 00:06:28;;;;;;;12.93;5.70;;;;;;;;;;5111202;28;20023;-57
2021/08/19 00:08:55;;;;;;;10.20;4.77;;;;;;;;;;5110909;28;20152;-57
2021/08/19 00:11:22;;;;;;;14.30;4.73;;;;;;;;;;5119258;27;20028;-57
2021/08/19 00:13:48;;;;;;;12.63;5.10;;;;;;;;;;5136886;27;20031;-57
2021/08/19 00:16:15;;;;;;;9.60;4.23;;;;;;;;;;5137076;27;20020;-57
2021/08/19 00:18:42;;;;;;;7.17;3.97;;;;;;;;;;5136838;27;20031;-57
2021/08/19 00:21:09;;;;;;;7.60;3.57;;;;;;;;;;5130938;27;20028;-57
2021/08/19 00:23:36;;;;;;;4.70;3.00;;;;;;;;;;5115084;28;20115;-57
2021/08/19 00:26:04;;;;;;;9.83;3.53;;;;;;;;;;5110411;28;20050;-57
2021/08/19 00:28:31;;;;;;;8.27;3.43;;;;;;;;;;5110516;28;20019;-57
2021/08/19 00:30:57;;;;;;;6.70;3.60;;;;;;;;;;5114246;27;20030;-57
2021/08/19 00:33:25;;;;;;;8.60;3.63;;;;;;;;;;5131282;27;20030;-57
2021/08/19 00:35:51;;;;;;;8.53;3.13;;;;;;;;;;5136370;27;20090;-58
2021/08/19 00:38:18;;;;;;;5.70;3.03;;;;;;;;;;5136555;27;20029;-57
2021/08/19 00:40:45;;;;;;;5.57;2.87;;;;;;;;;;5134491;27;20019;-58
2021/08/19 00:43:12;;;;;;;7.67;3.20;;;;;;;;;;5136125;27;20020;-58
2021/08/19 00:45:39;;;;;;;5.77;2.87;;;;;;;;;;5135642;27;20023;-57
2021/08/19 00:48:06;;;;;;;6.57;3.63;;;;;;;;;;5130635;27;20102;-57
2021/08/19 00:50:33;;;;;;;5.73;3.27;;;;;;;;;;5127851;27;20509;-57
2021/08/19 00:53:00;;;;;;;9.97;4.03;;;;;;;;;;5110146;28;20466;-57
2021/08/19 00:55:27;;;;;;;10.67;5.13;;;;;;;;;;5110071;28;20039;-57
2021/08/19 00:57:55;;;;;;;12.23;4.70;;;;;;;;;;5115141;28;20377;-57
2021/08/19 01:00:22;;;;;;;6.47;3.97;;;;;;;;;;5115750;27;20077;-57
2021/08/19 01:02:50;;;;;;;5.97;3.87;;;;;;;;;;5115423;27;20020;-57
2021/08/19 01:05:23;;;;;;;14.27;4.87;;;;;;;;;;5115138;28;20087;-57
2021/08/19 01:07:50;;;;;;;9.07;4.33;;;;;;;;;;5115278;28;20077;-58
2021/08/19 01:10:17;;;;;;;12.93;5.00;;;;;;;;;;5109430;27;20034;-59
2021/08/19 01:12:46;;;;;;;11.87;6.43;;;;;;;;;;5113651;27;20031;-57
2021/08/19 01:15:14;;;;;;;9.53;5.43;;;;;;;;;;5109971;28;20492;-58
2021/08/19 01:17:41;;;;;;;7.47;4.77;;;;;;;;;;5109377;28;20032;-57
2021/08/19 01:20:09;;;;;;;9.77;4.13;;;;;;;;;;5114175;28;20030;-58
2021/08/19 01:22:36;;;;;;;5.80;4.13;;;;;;;;;;5128950;27;20027;-57
2021/08/19 01:25:03;;;;;;;10.50;4.10;;;;;;;;;;5119794;27;20035;-57
2021/08/19 01:27:31;;;;;;;9.13;4.47;;;;;;;;;;5113868;28;20023;-57
2021/08/19 01:29:58;;;;;;;7.93;4.60;;;;;;;;;;5113132;28;20478;-57
2021/08/19 01:32:26;;;;;;;5.40;3.93;;;;;;;;;;5121481;27;20031;-58
2021/08/19 01:34:53;;;;;;;6.40;4.03;;;;;;;;;;5129838;27;20031;-58
2021/08/19 01:37:21;;;;;;;5.90;3.80;;;;;;;;;;5129516;27;20340;-57
2021/08/19 01:39:48;;;;;;;7.63;4.03;;;;;;;;;;5129851;27;20020;-57
2021/08/19 01:42:15;;;;;;;6.93;4.47;;;;;;;;;;5132125;27;20027;-57
2021/08/19 01:44:42;;;;;;;8.90;4.60;;;;;;;;;;5134691;27;20416;-57
2021/08/19 01:47:11;;;;;;;9.03;4.10;;;;;;;;;;5135102;27;20539;-57
2021/08/19 01:49:40;;;;;;;6.27;3.90;;;;;;;;;;5134612;27;20362;-58
2021/08/19 01:52:09;;;;;;;10.90;5.13;;;;;;;;;;5125285;27;20036;-57
2021/08/19 01:54:36;;;;;;;9.57;5.20;;;;;;;;;;5109644;28;20028;-57
2021/08/19 01:57:03;;;;;;;8.10;4.63;;;;;;;;;;5108990;28;20096;-57
2021/08/19 01:59:30;;;;;;;8.73;4.93;;;;;;;;;;5109033;28;20103;-56
2021/08/19 02:02:00;;;;;;;10.73;4.07;;;;;;;;;;5116199;27;20023;-57
2021/08/19 02:04:27;;;;;;;8.20;4.00;;;;;;;;;;5132833;27;20358;-57
2021/08/19 02:06:54;;;;;;;8.60;3.93;;;;;;;;;;5134584;27;20053;-57
2021/08/19 02:09:21;;;;;;;10.07;4.13;;;;;;;;;;5134776;27;20483;-57
2021/08/19 02:11:48;;;;;;;7.93;4.30;;;;;;;;;;5128166;27;20096;-57
2021/08/19 02:14:15;;;;;;;5.83;3.47;;;;;;;;;;5114080;28;20024;-57
2021/08/19 02:16:42;;;;;;;5.30;4.00;;;;;;;;;;5110105;28;20470;-57
2021/08/19 02:19:09;;;;;;;7.87;4.10;;;;;;;;;;5108520;28;20504;-57
2021/08/19 02:21:36;;;;;;;9.87;5.03;;;;;;;;;;5111565;27;20023;-57
2021/08/19 02:24:03;;;;;;;8.83;5.20;;;;;;;;;;5128400;27;20091;-57
2021/08/19 02:26:30;;;;;;;11.20;5.20;;;;;;;;;;5131929;27;20059;-57
2021/08/19 02:28:56;;;;;;;6.73;5.00;;;;;;;;;;5134166;27;20046;-57
2021/08/19 02:31:23;;;;;;;11.47;5.57;;;;;;;;;;5131820;27;20019;-58
2021/08/19 02:33:50;;;;;;;13.73;6.23;;;;;;;;;;5113690;28;20016;-56
2021/08/19 02:36:17;;;;;;;7.73;5.20;;;;;;;;;;5113585;28;20024;-57
2021/08/19 02:38:43;;;;;;;6.70;4.33;;;;;;;;;;5110356;28;20528;-57
2021/08/19 02:41:10;;;;;;;10.40;5.57;;;;;;;;;;5107892;28;20028;-58
2021/08/19 02:43:42;;;;;;;9.80;4.83;;;;;;;;;;5126204;27;20019;-57
2021/08/19 02:46:10;;;;;;;6.67;4.60;;;;;;;;;;5128373;27;20055;-57
2021/08/19 02:48:37;;;;;;;10.27;5.43;;;;;;;;;;5131058;27;20027;-57
2021/08/19 02:51:04;;;;;;;9.63;5.53;;;;;;;;;;5133961;27;20061;-57
2021/08/19 02:53:30;;;;;;;10.90;5.23;;;;;;;;;;5115104;27;20023;-57
2021/08/19 02:55:57;;;;;;;15.00;6.13;;;;;;;;;;5113193;28;20081;-58
2021/08/19 02:58:24;;;;;;;8.30;6.03;;;;;;;;;;5133257;27;20031;-57
2021/08/19 03:00:51;;;;;;;10.60;6.70;;;;;;;;;;5130672;27;20058;-57
2021/08/19 03:03:18;;;;;;;11.80;6.93;;;;;;;;;;5126560;27;20078;-57
2021/08/19 03:05:44;;;;;;;12.17;7.20;;;;;;;;;;5109481;27;20354;-57
2021/08/19 03:08:11;;;;;;;10.50;6.47;;;;;;;;;;5107961;28;20062;-57
2021/08/19 03:10:38;;;;;;;8.97;6.00;;;;;;;;;;5109604;28;20028;-57
2021/08/19 03:13:05;;;;;;;14.63;6.67;;;;;;;;;;5113575;27;20024;-57
2021/08/19 03:15:31;;;;;;;7.80;5.67;;;;;;;;;;5092696;28;20031;-57
2021/08/19 03:17:58;;;;;;;10.27;6.43;;;;;;;;;;5092542;28;20074;-57
2021/08/19 03:20:25;;;;;;;10.23;6.53;;;;;;;;;;5092470;28;20016;-56
2021/08/19 03:22:52;;;;;;;12.03;6.43;;;;;;;;;;5090403;28;20039;-57
2021/08/19 03:25:19;;;;;;;8.57;5.97;;;;;;;;;;5108363;27;20024;-57
2021/08/19 03:27:46;;;;;;;9.80;6.50;;;;;;;;;;5107474;28;20023;-56
2021/08/19 03:30:13;;;;;;;10.90;6.03;;;;;;;;;;5107207;28;20020;-57
2021/08/19 03:32:40;;;;;;;10.90;6.83;;;;;;;;;;5108434;28;20370;-56
2021/08/19 03:35:07;;;;;;;13.70;6.13;;;;;;;;;;5130287;27;20465;-57
2021/08/19 03:37:35;;;;;;;9.13;5.57;;;;;;;;;;5132962;27;20091;-56
2021/08/19 03:40:03;;;;;;;12.17;6.90;;;;;;;;;;5133333;28;20026;-57
2021/08/19 03:42:30;;;;;;;11.50;6.90;;;;;;;;;;5131496;28;20015;-57
2021/08/19 03:44:57;;;;;;;11.67;6.37;;;;;;;;;;5131642;28;20041;-56
2021/08/19 03:47:25;;;;;;;9.70;6.50;;;;;;;;;;5127160;28;20081;-57
2021/08/19 03:49:53;;;;;;;14.23;6.97;;;;;;;;;;5127964;28;20045;-57
2021/08/19 03:52:20;;;;;;;12.13;7.33;;;;;;;;;;5127842;28;20488;-57
2021/08/19 03:54:47;;;;;;;12.13;6.80;;;;;;;;;;5108131;28;20027;-57
2021/08/19 03:57:14;;;;;;;11.57;6.00;;;;;;;;;;5112560;28;20032;-57
2021/08/19 03:59:40;;;;;;;12.27;6.67;;;;;;;;;;5112608;28;20032;-57
2021/08/19 04:02:07;;;;;;;10.53;5.70;;;;;;;;;;5112370;28;20028;-57
2021/08/19 04:04:34;;;;;;;14.70;6.13;;;;;;;;;;5129729;28;20019;-57
2021/08/19 04:07:01;;;;;;;12.43;5.80;;;;;;;;;;5132427;28;20031;-57
2021/08/19 04:09:27;;;;;;;9.80;5.93;;;;;;;;;;5127668;28;20058;-57
2021/08/19 04:11:54;;;;;;;10.17;6.17;;;;;;;;;;5127543;28;20098;-57
2021/08/19 04:14:21;;;;;;;10.40;5.63;;;;;;;;;;5125856;28;20104;-57
2021/08/19 04:16:48;;;;;;;13.17;5.33;;;;;;;;;;5126822;28;20385;-57
2021/08/19 04:19:14;;;;;;;9.93;6.17;;;;;;;;;;5132821;28;20023;-56
2021/08/19 04:21:41;;;;;;;10.30;5.63;;;;;;;;;;5130866;28;20049;-56
2021/08/19 04:24:08;;;;;;;9.10;5.80;;;;;;;;;;5132780;28;20019;-56
2021/08/19 04:26:35;;;;;;;8.47;6.43;;;;;;;;;;5132665;28;20370;-57
2021/08/19 04:29:02;;;;;;;9.23;6.27;;;;;;;;;;5132385;28;20024;-56
2021/08/19 04:31:29;;;;;;;10.77;5.70;;;;;;;;;;5125720;28;20110;-57
2021/08/19 04:33:55;;;;;;;9.27;5.17;;;;;;;;;;5086478;28;20028;-57
2021/08/19 04:36:22;;;;;;;7.97;5.00;;;;;;;;;;5095088;28;20054;-56
2021/08/19 04:38:52;;;;;;;9.90;4.93;;;;;;;;;;5127132;28;20497;-57
2021/08/19 04:41:18;;;;;;;8.87;5.63;;;;;;;;;;5132100;28;20024;-56
2021/08/19 04:43:45;;;;;;;9.70;6.40;;;;;;;;;;5132731;27;20071;-56
2021/08/19 04:46:12;;;;;;;8.00;5.60;;;;;;;;;;5132753;27;20541;-57
2021/08/19 04:48:39;;;;;;;11.67;6.50;;;;;;;;;;5115708;28;20052;-56
2021/08/19 04:51:05;;;;;;;15.37;8.37;;;;;;;;;;5115878;28;20375;-56
2021/08/19 04:53:32;;;;;;;8.17;5.90;;;;;;;;;;5111131;27;20027;-56
2021/08/19 04:55:59;;;;;;;10.83;7.73;;;;;;;;;;5126697;27;20035;-56
2021/08/19 04:58:28;;;;;;;14.27;7.20;;;;;;;;;;5130607;27;20042;-57
2021/08/19 05:00:57;;;;;;;10.17;6.07;;;;;;;;;;5130692;27;20049;-57
2021/08/19 05:03:24;;;;;;;11.40;5.93;;;;;;;;;;5134912;27;20077;-57
2021/08/19 05:05:50;;;;;;;15.57;6.23;;;;;;;;;;5120600;27;20027;-56
2021/08/19 05:08:17;;;;;;;12.43;6.87;;;;;;;;;;5126216;27;20023;-57
2021/08/19 05:10:44;;;;;;;9.67;6.27;;;;;;;;;;5102730;27;20165;-57
2021/08/19 05:13:11;;;;;;;10.57;6.27;;;;;;;;;;5120278;27;20023;-56
2021/08/19 05:15:38;;;;;;;14.07;6.00;;;;;;;;;;5131168;27;21189;-56
2021/08/19 05:18:05;;;;;;;10.80;6.47;;;;;;;;;;5130456;27;20039;-57
2021/08/19 05:20:31;;;;;;;11.53;6.77;;;;;;;;;;5130431;27;20031;-57
2021/08/19 05:22:58;;;;;;;8.43;6.13;;;;;;;;;;5128698;27;20030;-57
2021/08/19 05:25:25;;;;;;;10.13;6.73;;;;;;;;;;5100983;27;20087;-57
2021/08/19 05:27:52;;;;;;;11.37;6.43;;;;;;;;;;5115012;28;20440;-56
2021/08/19 05:30:19;;;;;;;12.67;6.67;;;;;;;;;;5116339;27;20024;-57
2021/08/19 05:32:45;;;;;;;8.63;5.77;;;;;;;;;;5135114;27;20102;-57
2021/08/19 05:35:12;;;;;;;13.03;6.90;;;;;;;;;;5135499;27;20019;-57
2021/08/19 05:37:39;;;;;;;11.47;6.57;;;;;;;;;;5131846;27;20038;-57
2021/08/19 05:40:06;;;;;;;13.20;7.67;;;;;;;;;;5130100;27;20375;-57
2021/08/19 05:42:33;;;;;;;12.10;6.77;;;;;;;;;;5128827;27;20030;-57
2021/08/19 05:44:59;;;;;;;10.37;7.03;;;;;;;;;;5129752;27;20038;-57
2021/08/19 05:47:26;;;;;;;11.47;6.93;;;;;;;;;;5132666;27;20015;-57
2021/08/19 05:49:53;;;;;;;9.03;6.30;;;;;;;;;;5134698;27;20055;-57
2021/08/19 05:52:20;;;;;;;11.33;6.63;;;;;;;;;;5116610;27;20114;-57
2021/08/19 05:54:46;;;;;;;9.53;5.47;;;;;;;;;;5114335;28;20023;-57
2021/08/19 05:57:16;;;;;;;9.67;5.77;;;;;;;;;;5114397;28;20035;-57
2021/08/19 05:59:43;;;;;;;10.83;6.07;;;;;;;;;;5111585;28;20165;-57
2021/08/19 06:02:10;;;;;;;10.33;7.07;;;;;;;;;;5124946;27;20035;-57
2021/08/19 06:04:37;;;;;;;10.63;5.23;;;;;;;;;;5129253;27;20023;-57
2021/08/19 06:07:04;;;;;;;10.37;5.50;;;;;;;;;;5129301;27;20023;-57
2021/08/19 06:09:31;;;;;;;12.20;5.90;;;;;;;;;;5131501;27;20042;-57
2021/08/19 06:11:58;;;;;;;9.93;5.37;;;;;;;;;;5119850;27;20461;-57
2021/08/19 06:14:25;;;;;;;8.77;5.20;;;;;;;;;;5114110;28;20031;-57
2021/08/19 06:16:51;;;;;;;8.27;4.70;;;;;;;;;;5114152;28;20492;-56
2021/08/19 06:19:19;;;;;;;8.87;5.23;;;;;;;;;;5113933;28;20489;-57
2021/08/19 06:21:45;;;;;;;9.93;5.43;;;;;;;;;;5123439;27;20473;-58
2021/08/19 06:24:12;;;;;;;8.23;4.90;;;;;;;;;;5128323;27;20023;-57
2021/08/19 06:26:39;;;;;;;9.40;5.60;;;;;;;;;;5129547;27;20118;-57
2021/08/19 06:29:06;;;;;;;9.43;5.37;;;;;;;;;;5128879;27;20081;-57
2021/08/19 06:31:33;;;;;;;8.00;4.90;;;;;;;;;;5119685;27;20022;-57
2021/08/19 06:34:00;;;;;;;11.20;4.87;;;;;;;;;;5113857;28;20027;-56
2021/08/19 06:36:26;;;;;;;10.80;5.43;;;;;;;;;;5113732;28;20030;-56
2021/08/19 06:38:53;;;;;;;10.43;5.47;;;;;;;;;;5113233;28;20020;-57
2021/08/19 06:41:25;;;;;;;7.30;4.87;;;;;;;;;;5121347;27;20035;-57
2021/08/19 06:43:52;;;;;;;6.70;4.93;;;;;;;;;;5131635;27;20031;-57
2021/08/19 06:46:19;;;;;;;10.07;4.80;;;;;;;;;;5128633;27;20027;-57
2021/08/19 06:48:46;;;;;;;10.17;5.40;;;;;;;;;;5128786;27;20417;-57
2021/08/19 06:51:13;;;;;;;9.30;5.03;;;;;;;;;;5121979;27;20351;-57
2021/08/19 06:53:39;;;;;;;20.20;6.43;;;;;;;;;;5108679;28;20096;-57
2021/08/19 06:56:06;;;;;;;10.17;5.80;;;;;;;;;;5113309;28;20019;-57
2021/08/19 06:58:33;;;;;;;9.13;5.57;;;;;;;;;;5113444;28;20042;-57
2021/08/19 07:01:00;;;;;;;10.37;5.20;;;;;;;;;;5117454;27;20019;-57
2021/08/19 07:03:26;;;;;;;11.03;5.27;;;;;;;;;;5133551;27;20069;-56
2021/08/19 07:05:53;;;;;;;8.33;5.60;;;;;;;;;;5132602;27;20019;-57
2021/08/19 07:08:20;;;;;;;19.90;6.17;;;;;;;;;;5128234;27;20031;-56
2021/08/19 07:10:47;;;;;;;11.57;5.70;;;;;;;;;;5125380;27;20044;-56
2021/08/19 07:13:14;;;;;;;10.70;5.30;;;;;;;;;;5107716;28;20027;-58
2021/08/19 07:15:42;;;;;;;10.47;5.33;;;;;;;;;;5107849;28;20344;-56
2021/08/19 07:18:09;;;;;;;9.30;5.60;;;;;;;;;;5112752;28;20036;-57
2021/08/19 07:20:36;;;;;;;10.43;4.90;;;;;;;;;;5113152;27;20030;-57
2021/08/19 07:23:03;;;;;;;9.30;5.30;;;;;;;;;;5132947;27;20475;-57
2021/08/19 07:25:30;;;;;;;12.97;4.90;;;;;;;;;;5133054;27;20035;-57
2021/08/19 07:27:56;;;;;;;12.53;6.60;;;;;;;;;;5132525;27;20023;-57
2021/08/19 07:30:23;;;;;;;8.43;6.17;;;;;;;;;;5127832;27;20023;-57
2021/08/19 07:32:50;;;;;;;8.67;5.00;;;;;;;;;;5108544;27;20030;-56
2021/08/19 07:35:17;;;;;;;7.90;5.10;;;;;;;;;;5107470;28;20085;-58
2021/08/19 07:37:48;;;;;;;8.60;4.87;;;;;;;;;;5107137;28;20031;-57
2021/08/19 07:40:16;;;;;;;12.17;6.17;;;;;;;;;;5112670;28;20030;-56
2021/08/19 07:42:44;;;;;;;12.17;5.40;;;;;;;;;;5130355;28;20110;-56
2021/08/19 07:45:11;;;;;;;7.30;4.60;;;;;;;;;;5133303;28;20019;-57
2021/08/19 07:47:38;;;;;;;8.93;4.60;;;;;;;;;;5133124;28;20053;-56
2021/08/19 07:50:05;;;;;;;7.77;5.30;;;;;;;;;;5133094;28;20079;-56
2021/08/19 07:52:32;;;;;;;6.97;4.60;;;;;;;;;;5111387;28;20059;-57
2021/08/19 07:54:58;;;;;;;11.43;4.43;;;;;;;;;;5107159;28;20023;-56
2021/08/19 07:57:25;;;;;;;13.00;4.83;;;;;;;;;;5107144;28;20428;-57
2021/08/19 07:59:52;;;;;;;10.33;5.00;;;;;;;;;;5117950;28;20031;-56
2021/08/19 08:02:19;;;;;;;9.00;4.83;;;;;;;;;;5132191;28;20019;-57
2021/08/19 08:04:46;;;;;;;7.77;4.87;;;;;;;;;;5133062;28;20583;-56
2021/08/19 08:07:12;;;;;;;9.50;5.80;;;;;;;;;;5132883;28;20381;-57
2021/08/19 08:09:39;;;;;;;10.40;4.90;;;;;;;;;;5124225;28;20024;-56
2021/08/19 08:12:06;;;;;;;9.10;5.17;;;;;;;;;;5112216;28;20099;-56
2021/08/19 08:14:33;;;;;;;9.20;4.97;;;;;;;;;;5107698;28;20031;-57
2021/08/19 08:17:00;;;;;;;11.00;5.67;;;;;;;;;;5106521;28;20148;-56
2021/08/19 08:19:26;;;;;;;8.80;5.27;;;;;;;;;;5113684;27;20024;-57
2021/08/19 08:21:53;;;;;;;11.57;4.83;;;;;;;;;;5132526;27;20031;-57
2021/08/19 08:24:20;;;;;;;7.80;5.57;;;;;;;;;;5135171;27;20046;-57
2021/08/19 08:26:47;;;;;;;10.43;6.17;;;;;;;;;;5137027;27;20027;-56
2021/08/19 08:29:13;;;;;;;11.30;5.70;;;;;;;;;;5132081;27;20046;-56
2021/08/19 08:31:40;;;;;;;7.73;4.70;;;;;;;;;;5116068;27;20082;-56
2021/08/19 08:34:07;;;;;;;12.83;6.20;;;;;;;;;;5136070;27;20031;-56
2021/08/19 08:36:34;;;;;;;10.37;6.30;;;;;;;;;;5132892;27;20019;-57
2021/08/19 08:39:03;;;;;;;9.03;6.33;;;;;;;;;;5128742;27;20035;-57
2021/08/19 08:41:29;;;;;;;6.83;4.90;;;;;;;;;;5118401;27;20043;-57
2021/08/19 08:43:56;;;;;;;7.20;4.90;;;;;;;;;;5131182;27;20027;-56
2021/08/19 08:46:24;;;;;;;7.50;5.27;;;;;;;;;;5133851;27;20011;-57
2021/08/19 08:48:55;;;;;;;8.77;5.13;;;;;;;;;;5133795;27;20110;-57
2021/08/19 08:51:22;;;;;;;8.20;4.90;;;;;;;;;;5136445;27;20094;-56
2021/08/19 08:53:50;;;;;;;10.50;5.07;;;;;;;;;;5136314;27;20030;-56
2021/08/19 08:56:17;;;;;;;8.43;4.23;;;;;;;;;;5136366;27;20015;-56
2021/08/19 08:58:43;;;;;;;8.03;4.60;;;;;;;;;;5126876;27;20042;-57
2021/08/19 09:01:10;;;;;;;10.70;4.60;;;;;;;;;;5110348;28;20024;-56
2021/08/19 09:03:37;;;;;;;8.13;5.23;;;;;;;;;;5110109;28;20035;-57
2021/08/19 09:06:04;;;;;;;9.60;5.80;;;;;;;;;;5109883;28;20028;-56
2021/08/19 09:08:30;;;;;;;9.47;5.80;;;;;;;;;;5115908;27;20023;-57
2021/08/19 09:10:59;;;;;;;14.10;5.73;;;;;;;;;;5135622;27;20019;-57
2021/08/19 09:13:29;;;;;;;9.50;5.27;;;;;;;;;;5135800;27;20023;-57
2021/08/19 09:16:13;;;;;;;9.00;5.20;;;;;;;;;;5135927;27;20019;-56
2021/08/19 09:18:40;;;;;;;8.40;4.60;;;;;;;;;;5131081;27;20035;-56
2021/08/19 09:21:26;;;;;;;7.23;4.43;;;;;;;;;;5111267;28;20031;-56
2021/08/19 09:23:52;;;;;;;;;;;;;;;;;;5110814;28;20106;-57
2021/08/19 09:26:28;;;;;;;9.77;4.97;;;;;;;;;;5109773;28;19910;-56
2021/08/19 09:29:12;;;;;;;7.40;4.33;;;;;;;;;;5115537;27;20020;-56
2021/08/19 09:31:38;;;;;;;7.93;4.57;;;;;;;;;;5134367;27;20533;-56
2021/08/19 09:34:05;;;;;;;10.80;4.30;;;;;;;;;;5135563;27;20023;-56
2021/08/19 09:36:35;;;;;;;6.40;4.37;;;;;;;;;;5126047;27;20023;-56
2021/08/19 09:39:04;;;;;;;11.87;5.37;;;;;;;;;;5114227;28;20024;-57
2021/08/19 09:41:31;;;;;;;8.13;4.93;;;;;;;;;;5114813;28;20024;-56
2021/08/19 09:44:00;;;;;;;11.37;5.13;;;;;;;;;;5110029;28;20035;-56
2021/08/19 09:46:32;;;;;;;7.67;4.77;;;;;;;;;;5116323;27;20037;-56
2021/08/19 09:49:01;;;;;;;8.13;5.30;;;;;;;;;;5130041;27;20098;-56
2021/08/19 09:51:28;;;;;;;7.20;5.20;;;;;;;;;;5129796;27;20023;-56
2021/08/19 09:53:58;;;;;;;7.03;4.43;;;;;;;;;;5133734;27;20365;-56
2021/08/19 09:56:28;;;;;;;11.77;6.57;;;;;;;;;;5128168;27;20026;-56
2021/08/19 09:58:55;;;;;;;9.40;5.73;;;;;;;;;;5114310;28;20031;-56
2021/08/19 10:01:22;;;;;;;7.53;5.13;;;;;;;;;;5114431;28;20019;-56
2021/08/19 10:03:49;;;;;;;7.53;4.87;;;;;;;;;;5114286;28;20042;-56
2021/08/19 10:06:16;;;;;;;8.53;5.20;;;;;;;;;;5114363;27;20027;-57
2021/08/19 10:08:42;;;;;;;8.20;5.80;;;;;;;;;;5129196;27;20026;-56
2021/08/19 10:11:12;;;;;;;7.50;4.67;;;;;;;;;;5129287;27;20111;-57
2021/08/19 10:13:39;;;;;;;11.37;5.10;;;;;;;;;;5129480;27;20487;-56
2021/08/19 10:16:06;;;;;;;11.03;4.37;;;;;;;;;;5129698;27;20111;-56
2021/08/19 10:18:35;;;;;;;12.37;5.97;;;;;;;;;;5114020;28;20031;-56
2021/08/19 10:21:09;;;;;;;9.70;5.60;;;;;;;;;;5113953;28;20023;-56
2021/08/19 10:23:36;;;;;;;11.53;5.80;;;;;;;;;;5113602;28;20030;-56
2021/08/19 10:26:04;;;;;;;10.23;5.40;;;;;;;;;;5116523;27;20568;-56
2021/08/19 10:28:46;;;;;;;10.73;5.80;;;;;;;;;;5129765;27;20062;-56
2021/08/19 10:31:14;;;;;;;8.07;4.70;;;;;;;;;;5129059;27;20387;-56
2021/08/19 10:33:41;;;;;;;13.30;5.83;;;;;;;;;;5128835;27;20023;-56
2021/08/19 10:36:10;;;;;;;9.33;4.17;;;;;;;;;;5124938;27;20448;-57
2021/08/19 10:38:38;;;;;;;7.40;4.97;;;;;;;;;;5112831;28;20040;-56
2021/08/19 10:41:25;;;;;;;8.87;5.57;;;;;;;;;;5113490;28;20114;-56
2021/08/19 10:44:05;;;;;;;7.27;5.00;;;;;;;;;;5113014;28;20373;-57
2021/08/19 10:46:42;;;;;;;15.27;5.27;;;;;;;;;;5119930;27;20026;-56
2021/08/19 10:49:31;;;;;;;11.30;5.23;;;;;;;;;;5132995;27;20015;-56
2021/08/19 10:52:10;;;;;;;8.63;5.70;;;;;;;;;;5128717;27;20030;-56
2021/08/19 10:54:39;;;;;;;13.20;5.23;;;;;;;;;;5128965;27;20023;-56
2021/08/19 10:57:27;;;;;;;8.63;5.47;;;;;;;;;;5126266;27;20039;-56
2021/08/19 11:00:06;;;;;;;8.27;5.27;;;;;;;;;;5130571;27;20101;-56
2021/08/19 11:02:47;;;;;;;8.97;4.70;;;;;;;;;;5131785;27;20034;-56
2021/08/19 11:05:13;;;;;;;8.07;5.27;;;;;;;;;;5133668;27;20038;-56
2021/08/19 11:08:00;;;;;;;11.90;4.77;;;;;;;;;;5117754;27;20034;-56
2021/08/19 11:10:38;;;;;;;7.87;4.80;;;;;;;;;;5113048;28;20020;-56
2021/08/19 11:13:05;;;;;;;7.73;4.80;;;;;;;;;;5108242;28;20023;-56
2021/08/19 11:15:33;;;;;;;11.53;5.33;;;;;;;;;;5107817;28;20530;-56
2021/08/19 11:18:00;;;;;;;10.27;5.40;;;;;;;;;;5125406;27;20060;-56
2021/08/19 11:20:29;;;;;;;10.53;5.40;;;;;;;;;;5128041;27;20031;-56
2021/08/19 11:23:08;;;;;;;9.30;5.10;;;;;;;;;;5132064;27;20106;-56
2021/08/19 11:25:36;;;;;;;9.33;4.70;;;;;;;;;;5133441;27;20023;-56
2021/08/19 11:28:14;;;;;;;8.40;5.27;;;;;;;;;;5114720;27;20041;-56
2021/08/19 11:30:44;;;;;;;10.00;5.37;;;;;;;;;;5112809;28;20077;-56
2021/08/19 11:33:22;;;;;;;9.70;5.40;;;;;;;;;;5112683;28;20394;-56
2021/08/19 11:35:50;;;;;;;12.70;5.93;;;;;;;;;;5107410;28;20428;-56
2021/08/19 11:38:18;;;;;;;8.77;5.10;;;;;;;;;;5107389;28;20042;-56
2021/08/19 11:40:46;;;;;;;9.77;5.30;;;;;;;;;;5107248;28;20122;-56
2021/08/19 11:43:20;;;;;;;8.90;5.57;;;;;;;;;;5107147;28;20466;-56
2021/08/19 11:45:48;;;;;;;8.63;5.17;;;;;;;;;;5112942;28;20023;-56
2021/08/19 11:48:18;;;;;;;10.37;5.83;;;;;;;;;;5132000;28;20027;-56
2021/08/19 11:50:45;;;;;;;8.70;5.80;;;;;;;;;;5133145;28;20051;-57
2021/08/19 11:53:14;;;;;;;8.90;5.70;;;;;;;;;;5133384;27;20487;-56
2021/08/19 11:55:41;;;;;;;8.57;5.40;;;;;;;;;;5137033;27;20029;-56
2021/08/19 11:58:15;;;;;;;8.23;5.30;;;;;;;;;;5112987;27;20544;-56
2021/08/19 12:01:04;;;;;;;12.55;5.90;;;;;;;;;;5111703;28;20106;-56
2021/08/19 12:03:31;;;;;;;9.30;4.70;;;;;;;;;;5111340;28;20032;-56
2021/08/19 12:06:18;;;;;;;10.50;5.33;;;;;;;;;;5111304;27;20489;-57
2021/08/19 12:08:55;;;;;;;7.43;5.33;;;;;;;;;;5118822;27;20500;-56
2021/08/19 12:11:27;;;;;;;9.93;5.53;;;;;;;;;;5137038;27;20275;-56
2021/08/19 12:13:54;;;;;;;12.33;5.70;;;;;;;;;;5137027;27;20096;-56
2021/08/19 12:16:27;;;;;;;9.50;5.27;;;;;;;;;;5136850;27;20537;-56
2021/08/19 12:19:05;;;;;;;7.20;4.93;;;;;;;;;;5122799;27;20043;-56
2021/08/19 12:21:33;;;;;;;9.03;4.40;;;;;;;;;;5111024;28;20263;-57
2021/08/19 12:24:14;;;;;;;10.07;6.00;;;;;;;;;;5123850;27;20263;-57
2021/08/19 12:26:41;;;;;;;13.07;5.43;;;;;;;;;;5131458;27;20385;-56
2021/08/19 12:29:08;;;;;;;7.90;4.80;;;;;;;;;;5133878;27;20477;-56
2021/08/19 12:31:45;;;;;;;11.50;4.63;;;;;;;;;;5136619;27;20110;-56
2021/08/19 12:34:12;;;;;;;11.07;5.83;;;;;;;;;;5122219;27;20517;-56
2021/08/19 12:36:39;;;;;;;10.43;6.37;;;;;;;;;;5116114;28;20023;-57
2021/08/19 12:39:26;;;;;;;10.90;5.60;;;;;;;;;;5115713;28;20027;-56
2021/08/19 12:42:14;;;;;;;10.93;4.90;;;;;;;;;;5112403;28;20026;-57
2021/08/19 12:44:41;;;;;;;8.57;4.67;;;;;;;;;;5127779;27;20107;-56
2021/08/19 12:47:08;;;;;;;9.80;5.50;;;;;;;;;;5131244;27;20045;-56
2021/08/19 12:49:35;;;;;;;12.80;5.27;;;;;;;;;;5130965;27;20027;-56
2021/08/19 12:52:14;;;;;;;8.20;5.93;;;;;;;;;;5134701;27;20023;-56
2021/08/19 12:54:42;;;;;;;8.97;5.30;;;;;;;;;;5118196;27;20267;-56
2021/08/19 12:57:09;;;;;;;7.13;4.70;;;;;;;;;;5128387;27;20114;-56
2021/08/19 12:59:37;;;;;;;10.33;5.43;;;;;;;;;;5135635;27;20266;-56
2021/08/19 13:02:04;;;;;;;7.80;5.30;;;;;;;;;;5135807;27;20274;-56
2021/08/19 13:04:31;;;;;;;7.50;5.43;;;;;;;;;;5115231;27;20785;-56
2021/08/19 13:06:57;;;;;;;12.57;7.07;;;;;;;;;;5109561;28;20032;-56
2021/08/19 13:09:24;;;;;;;10.13;6.33;;;;;;;;;;5114405;27;20031;-56
2021/08/19 13:11:51;;;;;;;9.90;5.40;;;;;;;;;;5130536;27;20287;-57
2021/08/19 13:14:17;;;;;;;10.13;5.43;;;;;;;;;;5134187;27;20035;-56
2021/08/19 13:16:44;;;;;;;11.83;6.00;;;;;;;;;;5135701;27;20080;-56
2021/08/19 13:19:12;;;;;;;8.60;5.57;;;;;;;;;;5133500;27;20024;-56
2021/08/19 13:21:38;;;;;;;7.60;5.37;;;;;;;;;;5115183;28;20413;-56
2021/08/19 13:24:05;;;;;;;6.73;5.00;;;;;;;;;;5115514;28;20490;-58
2021/08/19 13:26:32;;;;;;;8.60;5.57;;;;;;;;;;5111500;28;20466;-56
2021/08/19 13:28:59;;;;;;;9.33;6.20;;;;;;;;;;5109917;28;20024;-57
2021/08/19 13:31:25;;;;;;;7.53;4.87;;;;;;;;;;5129576;27;20031;-57
2021/08/19 13:33:52;;;;;;;7.47;4.67;;;;;;;;;;5112266;27;20462;-56
2021/08/19 13:36:19;;;;;;;7.37;4.27;;;;;;;;;;5112243;28;20028;-57
2021/08/19 13:38:45;;;;;;;7.53;4.80;;;;;;;;;;5114862;28;20042;-56
2021/08/19 13:41:12;;;;;;;6.33;4.43;;;;;;;;;;5114827;28;20052;-56
2021/08/19 13:43:38;;;;;;;8.73;4.30;;;;;;;;;;5128989;27;20020;-56
2021/08/19 13:46:06;;;;;;;10.07;4.70;;;;;;;;;;5130818;27;20377;-56
2021/08/19 13:48:33;;;;;;;7.23;3.77;;;;;;;;;;5132305;27;21631;-56
2021/08/19 13:50:59;;;;;;;11.00;4.57;;;;;;;;;;5096466;27;20070;-57
2021/08/19 13:53:26;;;;;;;9.77;5.70;;;;;;;;;;5113239;27;20023;-56
2021/08/19 13:55:53;;;;;;;9.73;5.30;;;;;;;;;;5129325;27;20019;-57
2021/08/19 13:58:19;;;;;;;11.73;5.90;;;;;;;;;;5111589;28;20486;-55
2021/08/19 14:00:46;;;;;;;8.60;5.43;;;;;;;;;;5130290;27;20118;-55
2021/08/19 14:03:13;;;;;;;6.33;5.53;;;;;;;;;;5134771;27;20020;-56
2021/08/19 14:05:40;;;;;;;8.03;6.17;;;;;;;;;;5134804;27;20019;-57
2021/08/19 14:08:07;;;;;;;11.23;5.43;;;;;;;;;;5134483;27;20500;-56
2021/08/19 14:10:33;;;;;;;9.70;5.70;;;;;;;;;;5114315;27;20034;-57
2021/08/19 14:13:00;;;;;;;8.10;5.23;;;;;;;;;;5109197;28;20080;-57
2021/08/19 14:15:27;;;;;;;8.20;6.23;;;;;;;;;;5108783;28;20035;-57
2021/08/19 14:17:53;;;;;;;8.07;5.70;;;;;;;;;;5107844;28;20024;-56
2021/08/19 14:20:20;;;;;;;8.83;5.63;;;;;;;;;;5124737;27;20378;-56
2021/08/19 14:22:48;;;;;;;9.60;6.20;;;;;;;;;;5134514;27;20122;-57
2021/08/19 14:25:15;;;;;;;8.67;6.13;;;;;;;;;;5134369;27;20026;-57
2021/08/19 14:27:42;;;;;;;10.27;6.57;;;;;;;;;;5134323;27;20043;-56
2021/08/19 14:30:10;;;;;;;9.33;5.90;;;;;;;;;;5121616;27;20466;-56
2021/08/19 14:32:36;;;;;;;9.90;6.43;;;;;;;;;;5111480;28;20028;-56
2021/08/19 14:35:03;;;;;;;12.37;5.93;;;;;;;;;;5119998;27;20027;-57
2021/08/19 14:37:30;;;;;;;8.90;6.40;;;;;;;;;;5119208;27;20047;-57
2021/08/19 14:39:57;;;;;;;11.30;7.00;;;;;;;;;;5107787;28;20020;-57
2021/08/19 14:42:23;;;;;;;8.63;6.57;;;;;;;;;;5109655;28;20466;-56
2021/08/19 14:44:50;;;;;;;8.30;6.73;;;;;;;;;;5113436;27;20055;-56